createdAt,value
2019-03-20T01:43:00.773Z,5.80
2019-03-20T01:45:51.262Z,5.77
2019-03-20T01:48:20.084Z,5.60
2019-03-20T01:50:49.046Z,6.10
2019-03-20T01:53:18.513Z,5.80
2019-03-20T01:55:47.573Z,6.47
2019-03-20T01:58:18.703Z,5.50
2019-03-20T02:00:50.546Z,6.17
2019-03-20T02:03:19.504Z,5.97
2019-03-20T02:05:59.198Z,5.77
2019-03-20T02:08:28.564Z,5.40
2019-03-20T02:10:57.722Z,5.27
2019-03-20T02:13:26.483Z,6.17
2019-03-20T02:16:06.441Z,5.40
2019-03-20T02:18:35.463Z,5.37
2019-03-20T02:21:04.876Z,5.47
2019-03-20T02:23:33.864Z,5.90
2019-03-20T02:26:13.104Z,5.60
2019-03-20T02:28:44.027Z,5.60
2019-03-20T02:31:13.539Z,5.47
2019-03-20T02:33:42.508Z,6.90
2019-03-20T02:36:20.762Z,5.60
2019-03-20T02:38:49.914Z,6.00
2019-03-20T02:41:18.895Z,5.60
2019-03-20T02:43:47.888Z,6.17
2019-03-20T02:46:26.124Z,6.50
2019-03-20T02:48:55.033Z,5.77
2019-03-20T02:51:25.298Z,6.17
2019-03-20T02:53:54.035Z,6.23
2019-03-20T02:56:23.763Z,5.57
2019-03-20T02:58:54.761Z,5.73
2019-03-20T03:01:23.595Z,6.03
2019-03-20T03:03:52.573Z,5.43
2019-03-20T03:06:30.367Z,5.97
2019-03-20T03:08:59.245Z,6.47
2019-03-20T03:11:30.737Z,5.90
2019-03-20T03:14:01.118Z,6.07
2019-03-20T03:16:38.964Z,6.03
2019-03-20T03:19:08.089Z,5.80
2019-03-20T03:21:37.216Z,6.07
2019-03-20T03:24:06.148Z,6.60
2019-03-20T03:26:35.112Z,6.10
2019-03-20T03:29:03.893Z,6.13
2019-03-20T03:31:33.078Z,6.50
2019-03-20T03:34:02.559Z,6.10
2019-03-20T03:36:41.147Z,6.97
2019-03-20T03:39:10.044Z,6.80
2019-03-20T03:41:39.246Z,6.10
2019-03-20T03:44:11.270Z,5.30
2019-03-20T03:46:49.034Z,6.40
2019-03-20T03:49:17.950Z,6.60
2019-03-20T03:51:46.906Z,6.23
2019-03-20T03:54:18.762Z,5.77
2019-03-20T03:56:56.796Z,6.47
2019-03-20T03:59:25.859Z,6.13
2019-03-20T04:01:55.920Z,6.37
2019-03-20T04:04:26.473Z,6.40
2019-03-20T04:07:04.279Z,6.40
2019-03-20T04:09:33.027Z,6.23
2019-03-20T04:12:02.126Z,5.77
2019-03-20T04:14:31.561Z,7.00
2019-03-20T04:17:30.726Z,5.63
2019-03-20T04:19:59.569Z,5.70
2019-03-20T04:22:28.927Z,6.17
2019-03-20T04:24:58.338Z,4.93
2019-03-20T04:27:27.416Z,5.73
2019-03-20T04:29:56.370Z,5.40
2019-03-20T04:32:26.126Z,5.73
2019-03-20T04:34:54.923Z,5.70
2019-03-20T04:37:33.154Z,5.67
2019-03-20T04:40:02.034Z,5.20
2019-03-20T04:42:31.264Z,6.10
2019-03-20T04:45:02.455Z,6.13
2019-03-20T06:11:31.071Z,7.13
2019-03-20T06:14:00.434Z,6.77
2019-03-20T06:16:44.662Z,7.10
2019-03-20T06:19:13.634Z,6.60
2019-03-20T06:21:42.530Z,6.30
2019-03-20T06:24:11.286Z,6.50
2019-03-20T06:26:49.575Z,6.37
2019-03-20T06:29:20.185Z,6.50
2019-03-20T06:31:49.352Z,5.27
2019-03-20T06:34:18.335Z,5.43
2019-03-20T06:36:56.261Z,5.53
2019-03-20T06:39:25.339Z,5.27
2019-03-20T06:41:54.279Z,6.13
2019-03-20T06:44:23.445Z,6.00
2019-03-20T06:47:01.512Z,6.63
2019-03-20T06:49:30.346Z,5.90
2019-03-20T06:51:59.396Z,5.50
2019-03-20T06:54:28.374Z,6.00
2019-03-20T06:57:06.539Z,6.23
2019-03-20T06:59:56.364Z,6.33
2019-03-20T07:02:43.968Z,5.80
2019-03-20T07:05:55.030Z,5.77
2019-03-20T07:08:38.469Z,5.70
2019-03-20T07:11:10.633Z,5.60
2019-03-20T07:13:42.647Z,6.07
2019-03-20T07:18:47.649Z,6.30
2019-03-20T07:21:18.843Z,6.00
2019-03-20T07:23:51.027Z,6.37
2019-03-20T07:26:30.600Z,6.17
2019-03-20T07:29:03.028Z,4.77
2019-03-20T07:31:34.324Z,6.23
2019-03-20T07:34:07.181Z,5.53
2019-03-20T15:35:10.683Z,3.13
2019-03-20T15:40:17.202Z,2.60
2019-03-20T15:42:45.970Z,3.07
2019-03-20T15:45:15.112Z,2.40
2019-03-20T15:48:27.432Z,3.07
2019-03-20T15:50:59.044Z,2.63
2019-03-20T15:53:52.546Z,2.70
2019-03-20T15:56:21.702Z,2.43
2019-03-20T15:58:59.804Z,2.70
2019-03-20T16:01:28.946Z,2.27
2019-03-20T16:03:57.704Z,2.47
2019-03-20T16:06:26.572Z,2.80
2019-03-20T16:09:06.644Z,2.10
2019-03-20T16:11:35.615Z,2.00
2019-03-20T16:14:04.369Z,2.00
2019-03-20T16:16:33.156Z,2.20
2019-03-20T16:21:54.128Z,1.90
2019-03-20T16:24:24.220Z,1.97
2019-03-20T16:26:53.043Z,2.07
2019-03-20T16:29:31.097Z,2.20
2019-03-20T16:49:46.405Z,2.03
2019-03-20T16:52:15.750Z,1.60
2019-03-20T16:54:44.549Z,2.10
2019-03-20T16:57:13.709Z,1.93
2019-03-20T16:59:51.337Z,2.10
2019-03-20T17:02:20.313Z,2.10
2019-03-20T17:04:49.469Z,2.10
2019-03-20T17:07:18.675Z,2.20
2019-03-20T17:09:47.579Z,2.13
2019-03-20T17:12:16.304Z,2.30
2019-03-20T17:14:45.158Z,1.97
2019-03-20T17:17:14.027Z,2.00
2019-03-20T17:19:51.721Z,2.23
2019-03-20T17:22:20.534Z,1.60
2019-03-20T17:24:49.300Z,2.10
2019-03-20T17:27:20.461Z,1.97
2019-03-20T17:29:58.825Z,2.00
2019-03-20T17:32:27.625Z,1.70
2019-03-20T17:34:59.342Z,2.20
2019-03-20T17:37:28.388Z,2.17
2019-03-20T17:42:41.615Z,2.40
2019-03-20T17:45:11.010Z,2.10
2019-03-20T17:47:40.001Z,2.07
2019-03-20T17:50:21.005Z,1.83
2019-03-20T17:52:49.822Z,1.77
2019-03-20T17:55:18.640Z,1.90
2019-03-20T17:57:50.223Z,1.80
2019-03-20T18:00:40.062Z,2.30
2019-03-20T18:03:09.175Z,1.93
2019-03-20T18:05:38.020Z,1.90
2019-03-20T18:08:06.913Z,1.77
2019-03-20T18:10:44.929Z,2.07
2019-03-20T18:13:13.967Z,2.33
2019-03-20T18:15:42.736Z,2.70
2019-03-20T18:18:14.654Z,1.90
2019-03-20T18:20:54.017Z,1.60
2019-03-20T18:23:24.098Z,2.60
2019-03-20T18:25:52.885Z,2.00
2019-03-20T18:28:21.818Z,2.20
2019-03-20T18:30:59.878Z,2.27
2019-03-20T18:34:06.042Z,1.53
2019-03-20T18:36:35.291Z,1.93
2019-03-20T18:39:20.739Z,2.10
2019-03-20T18:41:57.446Z,2.20
2019-03-20T18:44:20.367Z,1.80
2019-03-20T18:46:49.302Z,2.23
2019-03-20T18:49:19.661Z,1.70
2019-03-20T18:51:49.971Z,1.90
2019-03-20T18:54:19.439Z,1.87
2019-03-20T18:56:51.511Z,1.77
2019-03-20T19:02:08.360Z,1.90
2019-03-20T19:04:37.086Z,1.80
2019-03-20T19:07:05.770Z,2.00
2019-03-20T19:09:43.515Z,2.00
2019-03-20T19:12:12.268Z,2.10
2019-03-20T19:14:43.635Z,1.83
2019-03-20T19:17:12.698Z,1.87
2019-03-20T19:19:51.794Z,1.87
2019-03-20T19:22:20.499Z,2.10
2019-03-20T19:24:50.007Z,1.90
2019-03-20T19:27:18.691Z,2.43
2019-03-20T19:29:56.816Z,2.40
2019-03-20T19:32:26.300Z,2.43
2019-03-20T19:34:55.825Z,2.70
2019-03-20T19:37:27.514Z,2.60
2019-03-20T19:40:06.328Z,2.67
2019-03-20T19:42:35.624Z,3.20
2019-03-20T19:45:07.319Z,3.00
2019-03-20T19:49:21.777Z,3.30
2019-03-20T19:50:33.493Z,3.43
2019-03-20T19:53:02.575Z,4.43
2019-03-20T19:55:31.934Z,3.93
2019-03-20T19:58:01.307Z,4.07
2019-03-20T20:00:42.597Z,4.57
2019-03-20T20:03:16.782Z,3.80
2019-03-20T20:05:45.655Z,3.93
2019-03-20T20:08:14.537Z,3.93
2019-03-20T20:10:52.553Z,3.93
2019-03-20T20:13:21.306Z,3.77
2019-03-20T20:15:50.283Z,3.63
2019-03-20T20:18:19.380Z,3.70
2019-03-20T20:20:57.945Z,3.50
2019-03-20T20:23:26.641Z,3.47
2019-03-20T20:25:55.515Z,3.00
2019-03-20T20:28:26.692Z,3.03
2019-03-20T20:31:04.647Z,2.80
2019-03-20T20:33:42.659Z,3.17
2019-03-20T20:36:12.030Z,3.30
2019-03-20T20:38:41.015Z,3.43
2019-03-20T20:41:09.780Z,4.13
2019-03-20T20:43:47.560Z,3.60
2019-03-20T20:46:17.278Z,3.57
2019-03-20T20:48:46.031Z,4.07
2019-03-20T20:51:15.025Z,3.60
2019-03-20T20:53:52.733Z,3.70
2019-03-20T20:56:24.984Z,5.30
2019-03-20T20:58:54.642Z,6.00
2019-03-20T21:01:23.786Z,5.07
2019-03-20T21:04:01.652Z,6.57
2019-03-20T21:06:31.001Z,7.73
2019-03-20T21:08:59.765Z,7.73
2019-03-20T21:11:28.912Z,8.60
2019-03-20T21:14:06.699Z,7.37
2019-03-20T21:16:35.955Z,7.13
2019-03-20T21:19:33.359Z,7.07
2019-03-20T21:22:48.248Z,6.43
2019-03-20T21:25:31.203Z,5.60
2019-03-20T21:28:50.769Z,5.40
2019-03-20T21:31:33.619Z,4.97
2019-03-20T21:34:50.167Z,5.53
2019-03-20T21:38:00.472Z,5.23
2019-03-20T21:40:30.094Z,5.07
2019-03-20T21:43:41.091Z,4.90
2019-03-20T21:46:57.589Z,5.27
2019-03-20T21:49:26.960Z,5.07
2019-03-20T21:51:59.200Z,4.83
2019-03-20T21:55:20.214Z,5.53
2019-03-20T21:58:36.180Z,5.20
2019-03-20T22:01:46.440Z,4.97
2019-03-20T22:04:27.354Z,4.70
2019-03-20T22:07:09.452Z,5.07
2019-03-20T22:10:33.351Z,5.43
2019-03-20T22:13:27.968Z,6.00
2019-03-20T22:16:32.600Z,6.00
2019-03-20T22:19:29.843Z,5.93
2019-03-20T22:22:22.512Z,5.70
2019-03-20T22:25:47.966Z,5.47
2019-03-20T22:28:47.099Z,5.00
2019-03-20T22:31:16.652Z,5.60
2019-03-20T22:37:05.365Z,6.10
2019-03-20T22:40:11.350Z,6.43
2019-03-20T22:42:51.220Z,6.87
2019-03-20T22:45:55.637Z,7.70
2019-03-20T22:49:11.697Z,6.97
2019-03-20T22:52:07.712Z,6.43
2019-03-20T22:57:58.273Z,7.27
2019-03-20T23:00:28.225Z,7.43
2019-03-20T23:03:02.911Z,8.80
2019-03-20T23:05:41.041Z,7.93
2019-03-20T23:08:16.485Z,7.90
2019-03-20T23:10:48.897Z,8.30
2019-03-20T23:13:19.282Z,8.60
2019-03-20T23:15:58.025Z,7.63
2019-03-20T23:18:27.240Z,7.73
2019-03-20T23:20:56.539Z,8.17
2019-03-20T23:23:29.039Z,7.90
2019-03-20T23:26:08.141Z,8.73
2019-03-20T23:28:37.437Z,8.03
2019-03-20T23:31:06.736Z,7.53
2019-03-20T23:33:35.942Z,6.90
2019-03-20T23:36:14.141Z,7.00
2019-03-20T23:38:43.649Z,7.80
2019-03-20T23:41:12.861Z,7.17
2019-03-20T23:43:52.326Z,7.90
2019-03-20T23:46:22.501Z,7.37
2019-03-20T23:49:00.565Z,8.57
2019-03-20T23:51:29.898Z,7.50
2019-03-20T23:53:59.145Z,7.30
2019-03-20T23:56:38.126Z,7.57
2019-03-20T23:59:07.859Z,8.07
